VLG7KA LEZL-LEBB

Flight info

Callsign VLG7KA
Flight time N/A
Altitude 36000
Route HIJ Z230 TLD N858 DGO
Aircraft A320/M-SDE3FGHIRWY/LB1

Departure

Time N/A
Airport Seville Airport (LEZL)

Arrival

Time 2026-04-30 18:08
Airport Bilbao Airport (LEBB)
Time Latitude Longitude Altitude Speed Heading
2026-04-30 17:39 41.11354 -3.62876 36113 ft 464 kts 25°
2026-04-30 17:42 41.41068 -3.46349 36092 ft 464 kts 21°
2026-04-30 17:43 41.55954 -3.38133 36092 ft 463 kts 21°
2026-04-30 17:44 41.73761 -3.28274 36094 ft 462 kts 21°
2026-04-30 17:46 41.88549 -3.20053 34307 ft 458 kts 21°
2026-04-30 17:47 42.00331 -3.13468 31338 ft 460 kts 20°
2026-04-30 17:48 42.12125 -3.06859 28207 ft 458 kts 20°
2026-04-30 17:48 42.20910 -3.01902 25918 ft 453 kts 20°
2026-04-30 17:49 42.32275 -2.95477 23463 ft 436 kts 21°
2026-04-30 17:50 42.43320 -2.89208 20752 ft 425 kts 22°
2026-04-30 17:51 42.50359 -2.82024 18857 ft 422 kts 40°
2026-04-30 17:52 42.56901 -2.74146 16883 ft 418 kts 40°
2026-04-30 17:53 42.67269 -2.61598 15239 ft 374 kts 40°
2026-04-30 17:54 42.74684 -2.52595 14284 ft 342 kts 39°
2026-04-30 17:55 42.81550 -2.44251 13017 ft 326 kts 40°
2026-04-30 17:56 42.88255 -2.36056 11423 ft 322 kts 41°
2026-04-30 17:57 42.93245 -2.29931 10303 ft 319 kts 42°
2026-04-30 17:58 42.98612 -2.26006 9566 ft 294 kts 349°
2026-04-30 17:59 43.04577 -2.32512 8136 ft 276 kts 311°
2026-04-30 18:00 43.09743 -2.39884 7015 ft 251 kts 310°
2026-04-30 18:00 43.13123 -2.45174 6392 ft 249 kts 299°
2026-04-30 18:01 43.14658 -2.49243 6018 ft 232 kts 296°
2026-04-30 18:02 43.16693 -2.54726 5985 ft 207 kts 296°
2026-04-30 18:02 43.18652 -2.60002 5549 ft 206 kts 297°
2026-04-30 18:03 43.20607 -2.65278 4623 ft 206 kts 300°
2026-04-30 18:04 43.22574 -2.70593 3675 ft 211 kts 299°
2026-04-30 18:05 43.25274 -2.77910 2374 ft 218 kts 299°
2026-04-30 18:06 43.27871 -2.84968 1160 ft 180 kts 300°
2026-04-30 18:07 43.29799 -2.90211 160 ft 137 kts 300°
2026-04-30 18:08 43.30491 -2.91950 125 ft 12 kts 320°
2026-04-30 18:09 43.30584 -2.91843 127 ft 8 kts 117°
2026-04-30 18:10 43.30433 -2.91434 128 ft 10 kts 116°
2026-04-30 18:11 43.30335 -2.91167 126 ft 6 kts 117°
2026-04-30 18:11 43.30347 -2.91009 126 ft 10 kts 28°
2026-04-30 18:12 43.30462 -2.90820 127 ft 4 kts 26°
2026-04-30 18:13 43.30484 -2.90804 126 ft 0 kts 26°